THT401 NSTU-NTAA
Flight info
| Callsign | THT401 |
|---|---|
| Flight time | 2h 57m |
| Altitude | 39000 |
| Route | GUTEL G224 OPERU DCT AROBA AROBA4T |
| Aircraft | A343/H-SDE2E3FGHIJ4J5M1RWXY/LB1D1 |
Departure
| Time | 2026-04-25 00:55 |
|---|---|
| Airport | Pago Pago International Airport (NSTU) |
Arrival
| Time | 2026-04-25 03:52 |
|---|---|
| Airport | Fa'a'ā International Airport (NTAA) |
| Time | Latitude | Longitude | Altitude | Speed | Heading |
|---|---|---|---|---|---|
| 2026-04-25 00:43 | -14.32746 | -170.71362 | 12 ft | 0 kts | 2° |
| 2026-04-25 00:49 | -14.32744 | -170.71361 | 12 ft | 1 kts | 5° |
| 2026-04-25 00:50 | -14.32740 | -170.71354 | 12 ft | 1 kts | 51° |
| 2026-04-25 00:50 | -14.32734 | -170.71323 | 12 ft | 9 kts | 79° |
| 2026-04-25 00:50 | -14.32705 | -170.71262 | 12 ft | 10 kts | 28° |
| 2026-04-25 00:50 | -14.32646 | -170.71236 | 14 ft | 9 kts | 51° |
| 2026-04-25 00:51 | -14.32638 | -170.71161 | 13 ft | 12 kts | 90° |
| 2026-04-25 00:51 | -14.32639 | -170.71063 | 12 ft | 15 kts | 90° |
| 2026-04-25 00:51 | -14.32638 | -170.70954 | 11 ft | 16 kts | 89° |
| 2026-04-25 00:51 | -14.32637 | -170.70830 | 9 ft | 18 kts | 89° |
| 2026-04-25 00:52 | -14.32639 | -170.70695 | 8 ft | 19 kts | 91° |
| 2026-04-25 00:52 | -14.32640 | -170.70554 | 7 ft | 20 kts | 90° |
| 2026-04-25 00:52 | -14.32640 | -170.70414 | 7 ft | 19 kts | 90° |
| 2026-04-25 00:52 | -14.32639 | -170.70278 | 7 ft | 19 kts | 90° |
| 2026-04-25 00:53 | -14.32639 | -170.70213 | 7 ft | 0 kts | 89° |
| 2026-04-25 00:53 | -14.32639 | -170.70208 | 7 ft | 2 kts | 89° |
| 2026-04-25 00:53 | -14.32639 | -170.70190 | 7 ft | 3 kts | 89° |
| 2026-04-25 00:53 | -14.32640 | -170.70158 | 8 ft | 8 kts | 95° |
| 2026-04-25 00:54 | -14.32662 | -170.70107 | 8 ft | 6 kts | 147° |
| 2026-04-25 00:54 | -14.32688 | -170.70115 | 7 ft | 4 kts | 216° |
| 2026-04-25 00:54 | -14.32721 | -170.70168 | 7 ft | 22 kts | 239° |
| 2026-04-25 00:54 | -14.32905 | -170.70493 | 8 ft | 82 kts | 240° |
| 2026-04-25 00:55 | -14.33280 | -170.71163 | 8 ft | 132 kts | 239° |
| 2026-04-25 00:55 | -14.33813 | -170.72108 | 31 ft | 171 kts | 237° |
| 2026-04-25 00:55 | -14.34428 | -170.73178 | 500 ft | 174 kts | 236° |
| 2026-04-25 00:55 | -14.35181 | -170.74142 | 997 ft | 175 kts | 218° |
| 2026-04-25 00:56 | -14.36191 | -170.74901 | 1444 ft | 189 kts | 208° |
| 2026-04-25 00:56 | -14.37550 | -170.75346 | 1588 ft | 222 kts | 176° |
| 2026-04-25 00:56 | -14.39024 | -170.74785 | 1983 ft | 236 kts | 136° |
| 2026-04-25 00:56 | -14.39842 | -170.73316 | 2649 ft | 246 kts | 100° |
| 2026-04-25 00:57 | -14.39776 | -170.71546 | 3454 ft | 250 kts | 78° |
| 2026-04-25 00:57 | -14.39255 | -170.69813 | 4265 ft | 257 kts | 70° |
| 2026-04-25 00:57 | -14.38546 | -170.68101 | 5070 ft | 261 kts | 67° |
| 2026-04-25 00:57 | -14.37796 | -170.66392 | 5961 ft | 262 kts | 68° |
| 2026-04-25 00:58 | -14.37224 | -170.64591 | 6640 ft | 268 kts | 84° |
| 2026-04-25 00:58 | -14.37190 | -170.62657 | 7407 ft | 271 kts | 94° |
| 2026-04-25 00:58 | -14.37413 | -170.60723 | 8224 ft | 272 kts | 99° |
| 2026-04-25 00:58 | -14.37771 | -170.58798 | 9048 ft | 275 kts | 102° |
| 2026-04-25 00:59 | -14.38183 | -170.56869 | 9747 ft | 282 kts | 102° |
| 2026-04-25 00:59 | -14.38616 | -170.54876 | 10336 ft | 291 kts | 102° |
| 2026-04-25 00:59 | -14.39059 | -170.52772 | 10669 ft | 308 kts | 102° |
| 2026-04-25 00:59 | -14.39506 | -170.50548 | 10966 ft | 325 kts | 101° |
| 2026-04-25 01:00 | -14.39958 | -170.48207 | 11226 ft | 341 kts | 101° |
| 2026-04-25 01:00 | -14.40417 | -170.45771 | 11722 ft | 348 kts | 101° |
| 2026-04-25 01:00 | -14.40875 | -170.43308 | 12303 ft | 353 kts | 101° |
| 2026-04-25 01:00 | -14.41335 | -170.40831 | 12804 ft | 359 kts | 101° |
| 2026-04-25 01:01 | -14.41813 | -170.38254 | 13377 ft | 363 kts | 101° |
| 2026-04-25 01:01 | -14.42282 | -170.35734 | 13987 ft | 365 kts | 101° |
| 2026-04-25 01:01 | -14.42766 | -170.33137 | 14430 ft | 371 kts | 101° |
| 2026-04-25 01:01 | -14.43256 | -170.30506 | 14920 ft | 374 kts | 100° |
| 2026-04-25 01:02 | -14.43747 | -170.27870 | 15503 ft | 376 kts | 101° |
| 2026-04-25 01:02 | -14.44245 | -170.25202 | 15994 ft | 381 kts | 101° |
| 2026-04-25 01:02 | -14.44747 | -170.22508 | 16502 ft | 384 kts | 100° |
| 2026-04-25 01:02 | -14.45252 | -170.19792 | 17124 ft | 385 kts | 100° |
| 2026-04-25 01:03 | -14.45759 | -170.17066 | 17591 ft | 391 kts | 100° |
| 2026-04-25 01:03 | -14.46275 | -170.14289 | 18090 ft | 394 kts | 100° |
| 2026-04-25 01:03 | -14.46792 | -170.11503 | 18610 ft | 396 kts | 100° |
| 2026-04-25 01:03 | -14.47314 | -170.08691 | 19016 ft | 401 kts | 100° |
| 2026-04-25 01:04 | -14.47839 | -170.05859 | 19479 ft | 404 kts | 100° |
| 2026-04-25 01:04 | -14.48367 | -170.03010 | 19979 ft | 406 kts | 100° |
| 2026-04-25 01:04 | -14.48901 | -170.00131 | 20372 ft | 411 kts | 100° |
| 2026-04-25 01:04 | -14.49439 | -169.97224 | 20855 ft | 412 kts | 100° |
| 2026-04-25 01:05 | -14.49977 | -169.94310 | 21346 ft | 415 kts | 99° |
| 2026-04-25 01:05 | -14.50518 | -169.91376 | 21727 ft | 420 kts | 99° |
| 2026-04-25 01:05 | -14.51066 | -169.88405 | 22213 ft | 421 kts | 99° |
| 2026-04-25 01:05 | -14.51613 | -169.85433 | 22653 ft | 424 kts | 100° |
| 2026-04-25 01:06 | -14.52169 | -169.82421 | 23020 ft | 428 kts | 99° |
| 2026-04-25 01:06 | -14.52725 | -169.79402 | 23479 ft | 430 kts | 100° |
| 2026-04-25 01:06 | -14.53285 | -169.76362 | 23788 ft | 434 kts | 100° |
| 2026-04-25 01:06 | -14.53846 | -169.73317 | 24129 ft | 437 kts | 99° |
| 2026-04-25 01:07 | -14.54414 | -169.70230 | 24550 ft | 437 kts | 100° |
| 2026-04-25 01:07 | -14.54981 | -169.67145 | 24903 ft | 440 kts | 100° |
| 2026-04-25 01:07 | -14.55554 | -169.64026 | 25278 ft | 442 kts | 100° |
| 2026-04-25 01:07 | -14.56126 | -169.60904 | 25659 ft | 443 kts | 100° |
| 2026-04-25 01:08 | -14.56701 | -169.57767 | 26004 ft | 446 kts | 100° |
| 2026-04-25 01:08 | -14.57278 | -169.54617 | 26386 ft | 447 kts | 100° |
| 2026-04-25 01:08 | -14.57857 | -169.51456 | 26752 ft | 450 kts | 100° |
| 2026-04-25 01:08 | -14.58439 | -169.48271 | 27093 ft | 452 kts | 100° |
| 2026-04-25 01:09 | -14.59024 | -169.45071 | 27451 ft | 454 kts | 100° |
| 2026-04-25 01:09 | -14.59603 | -169.41899 | 27769 ft | 456 kts | 101° |
| 2026-04-25 01:09 | -14.60191 | -169.38674 | 28093 ft | 459 kts | 101° |
| 2026-04-25 01:09 | -14.60783 | -169.35426 | 28429 ft | 460 kts | 101° |
| 2026-04-25 01:10 | -14.61375 | -169.32173 | 28758 ft | 462 kts | 101° |
| 2026-04-25 01:10 | -14.61969 | -169.28910 | 29073 ft | 464 kts | 101° |
| 2026-04-25 01:10 | -14.62567 | -169.25619 | 29380 ft | 466 kts | 101° |
| 2026-04-25 01:10 | -14.63166 | -169.22325 | 29676 ft | 468 kts | 101° |
| 2026-04-25 01:11 | -14.63766 | -169.19015 | 29978 ft | 469 kts | 101° |
| 2026-04-25 01:11 | -14.64369 | -169.15692 | 30236 ft | 471 kts | 101° |
| 2026-04-25 01:11 | -14.64965 | -169.12405 | 30463 ft | 473 kts | 101° |
| 2026-04-25 01:11 | -14.65570 | -169.09058 | 30721 ft | 474 kts | 101° |
| 2026-04-25 01:12 | -14.66176 | -169.05707 | 31054 ft | 473 kts | 101° |
| 2026-04-25 01:12 | -14.66779 | -169.02372 | 31340 ft | 473 kts | 101° |
| 2026-04-25 01:12 | -14.67395 | -168.99035 | 31600 ft | 474 kts | 101° |
| 2026-04-25 01:12 | -14.68033 | -168.95693 | 31915 ft | 473 kts | 102° |
| 2026-04-25 01:13 | -14.68679 | -168.92359 | 32240 ft | 472 kts | 102° |
| 2026-04-25 01:13 | -14.69326 | -168.89027 | 32543 ft | 472 kts | 102° |
| 2026-04-25 01:13 | -14.69969 | -168.85706 | 32847 ft | 471 kts | 102° |
| 2026-04-25 01:13 | -14.70608 | -168.82390 | 33142 ft | 470 kts | 102° |
| 2026-04-25 01:14 | -14.71244 | -168.79074 | 33437 ft | 470 kts | 102° |
| 2026-04-25 01:14 | -14.71875 | -168.75775 | 33723 ft | 469 kts | 102° |
| 2026-04-25 01:14 | -14.72508 | -168.72463 | 33992 ft | 469 kts | 102° |
| 2026-04-25 01:14 | -14.73138 | -168.69159 | 34243 ft | 468 kts | 102° |
| 2026-04-25 01:15 | -14.73757 | -168.65910 | 34484 ft | 467 kts | 102° |
| 2026-04-25 01:15 | -14.74392 | -168.62574 | 34725 ft | 467 kts | 102° |
| 2026-04-25 01:15 | -14.75019 | -168.59280 | 34961 ft | 466 kts | 102° |
| 2026-04-25 01:15 | -14.75644 | -168.55996 | 35183 ft | 466 kts | 102° |
| 2026-04-25 01:16 | -14.76259 | -168.52758 | 35414 ft | 465 kts | 102° |
| 2026-04-25 01:16 | -14.76884 | -168.49469 | 35621 ft | 465 kts | 102° |
| 2026-04-25 01:16 | -14.77506 | -168.46190 | 35831 ft | 465 kts | 102° |
| 2026-04-25 01:16 | -14.78126 | -168.42917 | 36060 ft | 464 kts | 102° |
| 2026-04-25 01:17 | -14.78746 | -168.39648 | 36239 ft | 464 kts | 101° |
| 2026-04-25 01:17 | -14.79165 | -168.37435 | 36393 ft | 464 kts | 102° |
| 2026-04-25 01:17 | -14.79983 | -168.33110 | 36656 ft | 463 kts | 101° |
| 2026-04-25 01:17 | -14.80603 | -168.29830 | 36851 ft | 463 kts | 101° |
| 2026-04-25 01:18 | -14.81218 | -168.26573 | 37079 ft | 462 kts | 101° |
| 2026-04-25 01:18 | -14.81832 | -168.23315 | 37231 ft | 462 kts | 101° |
| 2026-04-25 01:18 | -14.82447 | -168.20053 | 37447 ft | 461 kts | 101° |
| 2026-04-25 01:18 | -14.83059 | -168.16806 | 37639 ft | 461 kts | 101° |
| 2026-04-25 01:19 | -14.83673 | -168.13543 | 37782 ft | 461 kts | 101° |
| 2026-04-25 01:19 | -14.84283 | -168.10299 | 38012 ft | 460 kts | 101° |
| 2026-04-25 01:19 | -14.84893 | -168.07055 | 38153 ft | 460 kts | 101° |
| 2026-04-25 01:19 | -14.85503 | -168.03805 | 38329 ft | 459 kts | 101° |
| 2026-04-25 01:20 | -14.86103 | -168.00608 | 38520 ft | 459 kts | 101° |
| 2026-04-25 01:20 | -14.87317 | -167.94130 | 38787 ft | 458 kts | 101° |
| 2026-04-25 01:21 | -14.88531 | -167.87644 | 38892 ft | 462 kts | 101° |
| 2026-04-25 01:21 | -14.89749 | -167.81126 | 38891 ft | 460 kts | 101° |
| 2026-04-25 01:22 | -14.90959 | -167.74637 | 38888 ft | 458 kts | 101° |
| 2026-04-25 01:22 | -14.92166 | -167.68149 | 38886 ft | 459 kts | 101° |
| 2026-04-25 01:23 | -14.93371 | -167.61669 | 38888 ft | 459 kts | 101° |
| 2026-04-25 01:23 | -14.94567 | -167.55226 | 38890 ft | 459 kts | 101° |
| 2026-04-25 01:24 | -14.95768 | -167.48744 | 38890 ft | 459 kts | 101° |
| 2026-04-25 01:24 | -14.96967 | -167.42264 | 38890 ft | 459 kts | 101° |
| 2026-04-25 01:25 | -14.98168 | -167.35762 | 38882 ft | 460 kts | 101° |
| 2026-04-25 01:25 | -14.99172 | -167.30316 | 38888 ft | 460 kts | 101° |
| 2026-04-25 01:26 | -15.00366 | -167.23830 | 38893 ft | 459 kts | 101° |
| 2026-04-25 01:26 | -15.01560 | -167.17336 | 38890 ft | 459 kts | 101° |
| 2026-04-25 01:27 | -15.02743 | -167.10887 | 38889 ft | 459 kts | 101° |
| 2026-04-25 01:27 | -15.03933 | -167.04393 | 38886 ft | 459 kts | 101° |
| 2026-04-25 01:28 | -15.05712 | -166.94658 | 38885 ft | 459 kts | 101° |
| 2026-04-25 01:28 | -15.06898 | -166.88162 | 38885 ft | 460 kts | 101° |
| 2026-04-25 01:29 | -15.08082 | -166.81659 | 38884 ft | 459 kts | 101° |
| 2026-04-25 01:29 | -15.09260 | -166.75179 | 38883 ft | 458 kts | 101° |
| 2026-04-25 01:30 | -15.10436 | -166.68700 | 38888 ft | 458 kts | 101° |
| 2026-04-25 01:30 | -15.11615 | -166.62198 | 38883 ft | 462 kts | 101° |
| 2026-04-25 01:31 | -15.12805 | -166.55627 | 38885 ft | 468 kts | 101° |
| 2026-04-25 01:31 | -15.14007 | -166.48967 | 38881 ft | 474 kts | 101° |
| 2026-04-25 01:32 | -15.15215 | -166.42270 | 38875 ft | 477 kts | 101° |
| 2026-04-25 01:32 | -15.16434 | -166.35499 | 38881 ft | 478 kts | 101° |
| 2026-04-25 01:33 | -15.17649 | -166.28731 | 38880 ft | 478 kts | 101° |
| 2026-04-25 01:33 | -15.18864 | -166.21961 | 38885 ft | 478 kts | 101° |
| 2026-04-25 01:34 | -15.20067 | -166.15236 | 38878 ft | 477 kts | 101° |
| 2026-04-25 01:34 | -15.21275 | -166.08475 | 38883 ft | 478 kts | 101° |
| 2026-04-25 01:35 | -15.22484 | -166.01697 | 38883 ft | 478 kts | 101° |
| 2026-04-25 01:35 | -15.23690 | -165.94927 | 38884 ft | 478 kts | 101° |
| 2026-04-25 01:36 | -15.24884 | -165.88212 | 38885 ft | 478 kts | 101° |
| 2026-04-25 01:36 | -15.26085 | -165.81441 | 38883 ft | 477 kts | 101° |
| 2026-04-25 01:37 | -15.27284 | -165.74671 | 38881 ft | 478 kts | 101° |
| 2026-04-25 01:37 | -15.28481 | -165.67900 | 38881 ft | 478 kts | 101° |
| 2026-04-25 01:38 | -15.29677 | -165.61124 | 38884 ft | 478 kts | 101° |
| 2026-04-25 01:38 | -15.30869 | -165.54356 | 38885 ft | 478 kts | 101° |
| 2026-04-25 01:39 | -15.32061 | -165.47578 | 38883 ft | 478 kts | 101° |
| 2026-04-25 01:39 | -15.33251 | -165.40795 | 38884 ft | 478 kts | 101° |
| 2026-04-25 01:40 | -15.34430 | -165.34067 | 38881 ft | 478 kts | 101° |
| 2026-04-25 01:40 | -15.35615 | -165.27287 | 38881 ft | 478 kts | 101° |
| 2026-04-25 01:41 | -15.36797 | -165.20518 | 38880 ft | 478 kts | 101° |
| 2026-04-25 01:41 | -15.37979 | -165.13730 | 38881 ft | 478 kts | 101° |
| 2026-04-25 01:42 | -15.39158 | -165.06954 | 38881 ft | 478 kts | 101° |
| 2026-04-25 01:42 | -15.40335 | -165.00172 | 38881 ft | 478 kts | 101° |
| 2026-04-25 01:43 | -15.41514 | -164.93401 | 38881 ft | 477 kts | 101° |
| 2026-04-25 01:43 | -15.42683 | -164.86626 | 38881 ft | 477 kts | 101° |
| 2026-04-25 01:44 | -15.43842 | -164.79905 | 38882 ft | 477 kts | 101° |
| 2026-04-25 01:44 | -15.45010 | -164.73121 | 38881 ft | 477 kts | 101° |
| 2026-04-25 01:45 | -15.46174 | -164.66357 | 38881 ft | 477 kts | 101° |
| 2026-04-25 01:45 | -15.47339 | -164.59575 | 38881 ft | 478 kts | 101° |
| 2026-04-25 01:46 | -15.48503 | -164.52782 | 38881 ft | 478 kts | 101° |
| 2026-04-25 01:46 | -15.49666 | -164.45986 | 38880 ft | 478 kts | 101° |
| 2026-04-25 01:47 | -15.50824 | -164.39201 | 38884 ft | 478 kts | 101° |
| 2026-04-25 01:47 | -15.51983 | -164.32404 | 38885 ft | 478 kts | 101° |
| 2026-04-25 01:48 | -15.53137 | -164.25616 | 38884 ft | 478 kts | 101° |
| 2026-04-25 01:48 | -15.54283 | -164.18870 | 38884 ft | 478 kts | 101° |
| 2026-04-25 01:49 | -15.55432 | -164.12086 | 38881 ft | 478 kts | 101° |
| 2026-04-25 01:49 | -15.56580 | -164.05302 | 38881 ft | 478 kts | 101° |
| 2026-04-25 01:50 | -15.57726 | -163.98509 | 38883 ft | 478 kts | 101° |
| 2026-04-25 01:50 | -15.58870 | -163.91718 | 38881 ft | 477 kts | 101° |
| 2026-04-25 01:51 | -15.60009 | -163.84945 | 38884 ft | 477 kts | 101° |
| 2026-04-25 01:51 | -15.61147 | -163.78168 | 38884 ft | 477 kts | 101° |
| 2026-04-25 01:52 | -15.62282 | -163.71393 | 38883 ft | 477 kts | 101° |
| 2026-04-25 01:52 | -15.63413 | -163.64622 | 38887 ft | 477 kts | 101° |
| 2026-04-25 01:53 | -15.64544 | -163.57847 | 38881 ft | 476 kts | 101° |
| 2026-04-25 01:53 | -15.65672 | -163.51073 | 38878 ft | 476 kts | 101° |
| 2026-04-25 01:54 | -15.66790 | -163.44347 | 38881 ft | 476 kts | 101° |
| 2026-04-25 01:54 | -15.67913 | -163.37575 | 38881 ft | 476 kts | 101° |
| 2026-04-25 01:55 | -15.69033 | -163.30808 | 38881 ft | 476 kts | 101° |
| 2026-04-25 01:55 | -15.70153 | -163.24031 | 38881 ft | 476 kts | 101° |
| 2026-04-25 01:56 | -15.71272 | -163.17247 | 38883 ft | 476 kts | 101° |
| 2026-04-25 01:56 | -15.72382 | -163.10505 | 38883 ft | 476 kts | 101° |
| 2026-04-25 01:57 | -15.74053 | -163.00322 | 38881 ft | 476 kts | 101° |
| 2026-04-25 01:58 | -15.75164 | -162.93538 | 38883 ft | 476 kts | 101° |
| 2026-04-25 01:58 | -15.76272 | -162.86757 | 38881 ft | 476 kts | 101° |
| 2026-04-25 01:59 | -15.77371 | -162.80023 | 38881 ft | 476 kts | 101° |
| 2026-04-25 01:59 | -15.78475 | -162.73241 | 38883 ft | 476 kts | 101° |
| 2026-04-25 02:00 | -15.79577 | -162.66456 | 38882 ft | 476 kts | 101° |
| 2026-04-25 02:00 | -15.80676 | -162.59677 | 38884 ft | 476 kts | 102° |
| 2026-04-25 02:01 | -15.81775 | -162.52885 | 38882 ft | 476 kts | 101° |
| 2026-04-25 02:01 | -15.82845 | -162.46271 | 38869 ft | 475 kts | 101° |
| 2026-04-25 02:02 | -15.83909 | -162.39482 | 38693 ft | 477 kts | 101° |
| 2026-04-25 02:02 | -15.84426 | -162.36070 | 38518 ft | 477 kts | 101° |
| 2026-04-25 02:02 | -15.84932 | -162.32653 | 38274 ft | 477 kts | 101° |
| 2026-04-25 02:02 | -15.85424 | -162.29243 | 37976 ft | 477 kts | 100° |
| 2026-04-25 02:03 | -15.85903 | -162.25836 | 37646 ft | 478 kts | 100° |
| 2026-04-25 02:03 | -15.86373 | -162.22403 | 37252 ft | 479 kts | 100° |
| 2026-04-25 02:03 | -15.86831 | -162.18973 | 36829 ft | 480 kts | 99° |
| 2026-04-25 02:03 | -15.87273 | -162.15563 | 36349 ft | 482 kts | 99° |
| 2026-04-25 02:04 | -15.87708 | -162.12112 | 35849 ft | 483 kts | 99° |
| 2026-04-25 02:04 | -15.88135 | -162.08628 | 35307 ft | 485 kts | 98° |
| 2026-04-25 02:04 | -15.88551 | -162.05133 | 34720 ft | 488 kts | 98° |
| 2026-04-25 02:04 | -15.88957 | -162.01623 | 34101 ft | 490 kts | 98° |
| 2026-04-25 02:05 | -15.89351 | -161.98103 | 33366 ft | 492 kts | 98° |
| 2026-04-25 02:05 | -15.89735 | -161.94566 | 32570 ft | 495 kts | 97° |
| 2026-04-25 02:05 | -15.90107 | -161.91035 | 31763 ft | 498 kts | 97° |
| 2026-04-25 02:05 | -15.90472 | -161.87461 | 30901 ft | 501 kts | 97° |
| 2026-04-25 02:06 | -15.90834 | -161.83792 | 30000 ft | 504 kts | 97° |
| 2026-04-25 02:06 | -15.91180 | -161.80175 | 28933 ft | 508 kts | 97° |
| 2026-04-25 02:06 | -15.91519 | -161.76500 | 28350 ft | 503 kts | 97° |
| 2026-04-25 02:06 | -15.91834 | -161.72982 | 28250 ft | 491 kts | 97° |
| 2026-04-25 02:07 | -15.92163 | -161.69407 | 28176 ft | 490 kts | 98° |
| 2026-04-25 02:07 | -15.93205 | -161.62378 | 28647 ft | 492 kts | 102° |
| 2026-04-25 02:07 | -15.93819 | -161.58899 | 29168 ft | 489 kts | 102° |
| 2026-04-25 02:08 | -15.94435 | -161.55422 | 29625 ft | 487 kts | 102° |
| 2026-04-25 02:08 | -15.95027 | -161.52014 | 30042 ft | 486 kts | 102° |
| 2026-04-25 02:08 | -15.95612 | -161.48560 | 30404 ft | 485 kts | 101° |
| 2026-04-25 02:08 | -15.96184 | -161.45110 | 30769 ft | 483 kts | 101° |
| 2026-04-25 02:09 | -15.96749 | -161.41664 | 31124 ft | 482 kts | 101° |
| 2026-04-25 02:09 | -15.97306 | -161.38238 | 31477 ft | 481 kts | 101° |
| 2026-04-25 02:09 | -15.97852 | -161.34874 | 31817 ft | 479 kts | 101° |
| 2026-04-25 02:09 | -15.98406 | -161.31459 | 32162 ft | 478 kts | 101° |
| 2026-04-25 02:10 | -15.98959 | -161.28053 | 32517 ft | 477 kts | 101° |
| 2026-04-25 02:10 | -15.99510 | -161.24655 | 32836 ft | 475 kts | 101° |
| 2026-04-25 02:10 | -16.00059 | -161.21267 | 33169 ft | 474 kts | 101° |
| 2026-04-25 02:10 | -16.00608 | -161.17882 | 33490 ft | 473 kts | 101° |
| 2026-04-25 02:11 | -16.00967 | -161.15667 | 33701 ft | 472 kts | 101° |
| 2026-04-25 02:11 | -16.01513 | -161.12292 | 34001 ft | 471 kts | 101° |
| 2026-04-25 02:11 | -16.02055 | -161.08939 | 34258 ft | 470 kts | 101° |
| 2026-04-25 02:11 | -16.02594 | -161.05598 | 34501 ft | 470 kts | 101° |
| 2026-04-25 02:12 | -16.03133 | -161.02256 | 34741 ft | 469 kts | 101° |
| 2026-04-25 02:12 | -16.03671 | -160.98920 | 34982 ft | 468 kts | 101° |
| 2026-04-25 02:12 | -16.04211 | -160.95566 | 35228 ft | 467 kts | 102° |
| 2026-04-25 02:12 | -16.04745 | -160.92243 | 35472 ft | 467 kts | 102° |
| 2026-04-25 02:13 | -16.05280 | -160.88913 | 35703 ft | 466 kts | 102° |
| 2026-04-25 02:13 | -16.05814 | -160.85588 | 35933 ft | 465 kts | 102° |
| 2026-04-25 02:13 | -16.06346 | -160.82270 | 36179 ft | 465 kts | 102° |
| 2026-04-25 02:13 | -16.06876 | -160.78960 | 36383 ft | 464 kts | 102° |
| 2026-04-25 02:14 | -16.07405 | -160.75649 | 36610 ft | 464 kts | 102° |
| 2026-04-25 02:14 | -16.07934 | -160.72342 | 36818 ft | 463 kts | 102° |
| 2026-04-25 02:14 | -16.08455 | -160.69081 | 37025 ft | 463 kts | 102° |
| 2026-04-25 02:14 | -16.08987 | -160.65743 | 37242 ft | 462 kts | 102° |
| 2026-04-25 02:15 | -16.09197 | -160.64422 | 37326 ft | 462 kts | 102° |
| 2026-04-25 02:15 | -16.09792 | -160.60689 | 37556 ft | 461 kts | 102° |
| 2026-04-25 02:15 | -16.10316 | -160.57398 | 37760 ft | 460 kts | 102° |
| 2026-04-25 02:16 | -16.10838 | -160.54111 | 37958 ft | 460 kts | 102° |
| 2026-04-25 02:16 | -16.11359 | -160.50828 | 38155 ft | 459 kts | 103° |
| 2026-04-25 02:16 | -16.11877 | -160.47560 | 38362 ft | 458 kts | 103° |
| 2026-04-25 02:16 | -16.12395 | -160.44291 | 38479 ft | 460 kts | 103° |
| 2026-04-25 02:17 | -16.12919 | -160.40993 | 38506 ft | 462 kts | 103° |
| 2026-04-25 02:17 | -16.13441 | -160.37695 | 38640 ft | 462 kts | 103° |
| 2026-04-25 02:17 | -16.13962 | -160.34395 | 38790 ft | 462 kts | 103° |
| 2026-04-25 02:18 | -16.15005 | -160.27780 | 38886 ft | 465 kts | 103° |
| 2026-04-25 02:18 | -16.16047 | -160.21152 | 38885 ft | 462 kts | 103° |
| 2026-04-25 02:19 | -16.17075 | -160.14597 | 38889 ft | 461 kts | 103° |
| 2026-04-25 02:19 | -16.18108 | -160.08013 | 38887 ft | 461 kts | 103° |
| 2026-04-25 02:20 | -16.19139 | -160.01425 | 38882 ft | 461 kts | 103° |
| 2026-04-25 02:20 | -16.20169 | -159.94828 | 38884 ft | 461 kts | 103° |
| 2026-04-25 02:21 | -16.21198 | -159.88224 | 38888 ft | 462 kts | 103° |
| 2026-04-25 02:21 | -16.22221 | -159.81637 | 38887 ft | 461 kts | 103° |
| 2026-04-25 02:22 | -16.23243 | -159.75052 | 38884 ft | 460 kts | 103° |
| 2026-04-25 02:22 | -16.24255 | -159.68510 | 38884 ft | 460 kts | 103° |
| 2026-04-25 02:23 | -16.25273 | -159.61921 | 38884 ft | 460 kts | 103° |
| 2026-04-25 02:23 | -16.26287 | -159.55350 | 38884 ft | 460 kts | 103° |
| 2026-04-25 02:24 | -16.27300 | -159.48762 | 38879 ft | 460 kts | 103° |
| 2026-04-25 02:24 | -16.28309 | -159.42188 | 38887 ft | 459 kts | 103° |
| 2026-04-25 02:25 | -16.29314 | -159.35628 | 38882 ft | 459 kts | 103° |
| 2026-04-25 02:25 | -16.30318 | -159.29062 | 38884 ft | 459 kts | 103° |
| 2026-04-25 02:26 | -16.31320 | -159.22488 | 38885 ft | 459 kts | 103° |
| 2026-04-25 02:26 | -16.32314 | -159.15956 | 38888 ft | 459 kts | 103° |
| 2026-04-25 02:27 | -16.33314 | -159.09378 | 38882 ft | 460 kts | 103° |
| 2026-04-25 02:27 | -16.34313 | -159.02788 | 38884 ft | 460 kts | 103° |
| 2026-04-25 02:28 | -16.35308 | -158.96207 | 38884 ft | 460 kts | 103° |
| 2026-04-25 02:28 | -16.36301 | -158.89621 | 38887 ft | 460 kts | 103° |
| 2026-04-25 02:29 | -16.37293 | -158.83033 | 38884 ft | 460 kts | 103° |
| 2026-04-25 02:29 | -16.38276 | -158.76490 | 38889 ft | 459 kts | 103° |
| 2026-04-25 02:30 | -16.39260 | -158.69926 | 38882 ft | 459 kts | 103° |
| 2026-04-25 02:30 | -16.40243 | -158.63361 | 38884 ft | 459 kts | 103° |
| 2026-04-25 02:31 | -16.41225 | -158.56784 | 38886 ft | 459 kts | 103° |
| 2026-04-25 02:31 | -16.42203 | -158.50218 | 38883 ft | 459 kts | 103° |
| 2026-04-25 02:32 | -16.43179 | -158.43645 | 38884 ft | 459 kts | 103° |
| 2026-04-25 02:32 | -16.44155 | -158.37069 | 38891 ft | 459 kts | 103° |
| 2026-04-25 02:33 | -16.45126 | -158.30503 | 38887 ft | 459 kts | 103° |
| 2026-04-25 02:33 | -16.46095 | -158.23944 | 38886 ft | 459 kts | 103° |
| 2026-04-25 02:34 | -16.47064 | -158.17366 | 38885 ft | 459 kts | 103° |
| 2026-04-25 02:34 | -16.48028 | -158.10806 | 38887 ft | 458 kts | 103° |
| 2026-04-25 02:35 | -16.48984 | -158.04285 | 38887 ft | 458 kts | 103° |
| 2026-04-25 02:35 | -16.49944 | -157.97730 | 38889 ft | 458 kts | 103° |
| 2026-04-25 02:36 | -16.50903 | -157.91160 | 38886 ft | 458 kts | 103° |
| 2026-04-25 02:36 | -16.51858 | -157.84607 | 38890 ft | 458 kts | 104° |
| 2026-04-25 02:37 | -16.52816 | -157.78023 | 38889 ft | 460 kts | 104° |
| 2026-04-25 02:37 | -16.53772 | -157.71428 | 38891 ft | 460 kts | 103° |
| 2026-04-25 02:38 | -16.54727 | -157.64828 | 38885 ft | 460 kts | 103° |
| 2026-04-25 02:38 | -16.55671 | -157.58288 | 38889 ft | 460 kts | 103° |
| 2026-04-25 02:39 | -16.56621 | -157.51690 | 38887 ft | 459 kts | 104° |
| 2026-04-25 02:39 | -16.57566 | -157.45112 | 38887 ft | 458 kts | 104° |
| 2026-04-25 02:40 | -16.58509 | -157.38539 | 38886 ft | 458 kts | 104° |
| 2026-04-25 02:40 | -16.59452 | -157.31951 | 38888 ft | 458 kts | 104° |
| 2026-04-25 02:41 | -16.60390 | -157.25380 | 38887 ft | 458 kts | 104° |
| 2026-04-25 02:41 | -16.61326 | -157.18806 | 38886 ft | 458 kts | 104° |
| 2026-04-25 02:42 | -16.62259 | -157.12238 | 38885 ft | 458 kts | 104° |
| 2026-04-25 02:42 | -16.63185 | -157.05706 | 38889 ft | 458 kts | 104° |
| 2026-04-25 02:43 | -16.64114 | -156.99135 | 38883 ft | 458 kts | 104° |
| 2026-04-25 02:43 | -16.65041 | -156.92571 | 38888 ft | 457 kts | 104° |
| 2026-04-25 02:44 | -16.65965 | -156.86002 | 38891 ft | 457 kts | 104° |
| 2026-04-25 02:44 | -16.66889 | -156.79430 | 38886 ft | 458 kts | 104° |
| 2026-04-25 02:45 | -16.67803 | -156.72901 | 38889 ft | 458 kts | 104° |
| 2026-04-25 02:45 | -16.68721 | -156.66335 | 38885 ft | 458 kts | 103° |
| 2026-04-25 02:46 | -16.69637 | -156.59768 | 38885 ft | 457 kts | 103° |
| 2026-04-25 02:46 | -16.70551 | -156.53196 | 38887 ft | 458 kts | 103° |
| 2026-04-25 02:47 | -16.71467 | -156.46600 | 38889 ft | 459 kts | 103° |
| 2026-04-25 02:47 | -16.72379 | -156.40015 | 38886 ft | 459 kts | 103° |
| 2026-04-25 02:48 | -16.73290 | -156.33416 | 38889 ft | 459 kts | 103° |
| 2026-04-25 02:48 | -16.74199 | -156.26822 | 38889 ft | 459 kts | 103° |
| 2026-04-25 02:49 | -16.75106 | -156.20231 | 38888 ft | 460 kts | 103° |
| 2026-04-25 02:49 | -16.76008 | -156.13653 | 38886 ft | 460 kts | 103° |
| 2026-04-25 02:50 | -16.76913 | -156.07035 | 38886 ft | 460 kts | 103° |
| 2026-04-25 02:50 | -16.77816 | -156.00419 | 38887 ft | 460 kts | 103° |
| 2026-04-25 02:51 | -16.78716 | -155.93806 | 38884 ft | 460 kts | 103° |
| 2026-04-25 02:51 | -16.79615 | -155.87191 | 38884 ft | 461 kts | 103° |
| 2026-04-25 02:52 | -16.80513 | -155.80562 | 38883 ft | 461 kts | 103° |
| 2026-04-25 02:52 | -16.81409 | -155.73932 | 38883 ft | 461 kts | 103° |
| 2026-04-25 02:53 | -16.82304 | -155.67296 | 38885 ft | 461 kts | 103° |
| 2026-04-25 02:53 | -16.83189 | -155.60711 | 38886 ft | 461 kts | 103° |
| 2026-04-25 02:54 | -16.84082 | -155.54063 | 38880 ft | 462 kts | 103° |
| 2026-04-25 02:54 | -16.84975 | -155.47399 | 38880 ft | 464 kts | 103° |
| 2026-04-25 02:55 | -16.85866 | -155.40719 | 38889 ft | 465 kts | 103° |
| 2026-04-25 02:55 | -16.86755 | -155.34034 | 38885 ft | 464 kts | 103° |
| 2026-04-25 02:56 | -16.87636 | -155.27404 | 38885 ft | 464 kts | 103° |
| 2026-04-25 02:56 | -16.88373 | -155.21841 | 38884 ft | 465 kts | 103° |
| 2026-04-25 02:57 | -16.89258 | -155.15144 | 38883 ft | 465 kts | 103° |
| 2026-04-25 02:57 | -16.90141 | -155.08448 | 38884 ft | 465 kts | 103° |
| 2026-04-25 02:58 | -16.91020 | -155.01769 | 38884 ft | 465 kts | 103° |
| 2026-04-25 02:58 | -16.91898 | -154.95076 | 38884 ft | 465 kts | 103° |
| 2026-04-25 02:59 | -16.92768 | -154.88424 | 38884 ft | 465 kts | 103° |
| 2026-04-25 02:59 | -16.93641 | -154.81740 | 38884 ft | 465 kts | 103° |
| 2026-04-25 03:00 | -16.94512 | -154.75046 | 38883 ft | 465 kts | 103° |
| 2026-04-25 03:00 | -16.95382 | -154.68347 | 38884 ft | 465 kts | 103° |
| 2026-04-25 03:01 | -16.96249 | -154.61653 | 38887 ft | 465 kts | 103° |
| 2026-04-25 03:01 | -16.97115 | -154.54949 | 38885 ft | 465 kts | 103° |
| 2026-04-25 03:02 | -16.97976 | -154.48265 | 38884 ft | 465 kts | 103° |
| 2026-04-25 03:02 | -16.98838 | -154.41559 | 38883 ft | 465 kts | 103° |
| 2026-04-25 03:03 | -16.99695 | -154.34864 | 38880 ft | 465 kts | 103° |
| 2026-04-25 03:03 | -17.00552 | -154.28166 | 38889 ft | 465 kts | 103° |
| 2026-04-25 03:04 | -17.01406 | -154.21465 | 38891 ft | 465 kts | 103° |
| 2026-04-25 03:04 | -17.02252 | -154.14806 | 38888 ft | 465 kts | 103° |
| 2026-04-25 03:05 | -17.03526 | -154.04756 | 38888 ft | 465 kts | 103° |
| 2026-04-25 03:05 | -17.04373 | -153.98048 | 38883 ft | 465 kts | 103° |
| 2026-04-25 03:06 | -17.05217 | -153.91353 | 38883 ft | 465 kts | 103° |
| 2026-04-25 03:06 | -17.06059 | -153.84649 | 38883 ft | 465 kts | 103° |
| 2026-04-25 03:07 | -17.06893 | -153.77988 | 38886 ft | 465 kts | 103° |
| 2026-04-25 03:07 | -17.07730 | -153.71287 | 38886 ft | 465 kts | 102° |
| 2026-04-25 03:08 | -17.08567 | -153.64574 | 38889 ft | 466 kts | 102° |
| 2026-04-25 03:08 | -17.09402 | -153.57855 | 38882 ft | 466 kts | 102° |
| 2026-04-25 03:09 | -17.10234 | -153.51140 | 38889 ft | 466 kts | 102° |
| 2026-04-25 03:09 | -17.11064 | -153.44422 | 38888 ft | 466 kts | 102° |
| 2026-04-25 03:10 | -17.11892 | -153.37702 | 38881 ft | 467 kts | 102° |
| 2026-04-25 03:10 | -17.12723 | -153.30949 | 38891 ft | 468 kts | 102° |
| 2026-04-25 03:11 | -17.13550 | -153.24198 | 38879 ft | 468 kts | 102° |
| 2026-04-25 03:11 | -17.14375 | -153.17439 | 38884 ft | 468 kts | 102° |
| 2026-04-25 03:12 | -17.15194 | -153.10721 | 38882 ft | 468 kts | 102° |
| 2026-04-25 03:12 | -17.16017 | -153.03958 | 38880 ft | 470 kts | 102° |
| 2026-04-25 03:13 | -17.16838 | -152.97179 | 38881 ft | 470 kts | 102° |
| 2026-04-25 03:13 | -17.17653 | -152.90420 | 38882 ft | 468 kts | 102° |
| 2026-04-25 03:14 | -17.18468 | -152.83658 | 38883 ft | 468 kts | 102° |
| 2026-04-25 03:14 | -17.19281 | -152.76894 | 38880 ft | 469 kts | 102° |
| 2026-04-25 03:15 | -17.20093 | -152.70124 | 38879 ft | 469 kts | 102° |
| 2026-04-25 03:15 | -17.20902 | -152.63349 | 38881 ft | 469 kts | 102° |
| 2026-04-25 03:16 | -17.21707 | -152.56587 | 38883 ft | 469 kts | 102° |
| 2026-04-25 03:16 | -17.22509 | -152.49835 | 38882 ft | 469 kts | 102° |
| 2026-04-25 03:17 | -17.23314 | -152.43049 | 38878 ft | 471 kts | 102° |
| 2026-04-25 03:17 | -17.24117 | -152.36249 | 38880 ft | 471 kts | 102° |
| 2026-04-25 03:18 | -17.24916 | -152.29453 | 38882 ft | 471 kts | 102° |
| 2026-04-25 03:18 | -17.25709 | -152.22700 | 38882 ft | 471 kts | 102° |
| 2026-04-25 03:19 | -17.26506 | -152.15893 | 38884 ft | 471 kts | 102° |
| 2026-04-25 03:19 | -17.27300 | -152.09088 | 38884 ft | 471 kts | 102° |
| 2026-04-25 03:20 | -17.28092 | -152.02284 | 38881 ft | 471 kts | 102° |
| 2026-04-25 03:20 | -17.28881 | -151.95476 | 38881 ft | 471 kts | 102° |
| 2026-04-25 03:21 | -17.29669 | -151.88664 | 38882 ft | 471 kts | 102° |
| 2026-04-25 03:21 | -17.30455 | -151.81846 | 38882 ft | 471 kts | 102° |
| 2026-04-25 03:22 | -17.31234 | -151.75069 | 38883 ft | 471 kts | 102° |
| 2026-04-25 03:22 | -17.32347 | -151.68372 | 38883 ft | 462 kts | 115° |
| 2026-04-25 03:23 | -17.35199 | -151.62446 | 38883 ft | 454 kts | 124° |
| 2026-04-25 03:23 | -17.38291 | -151.56670 | 38883 ft | 455 kts | 124° |
| 2026-04-25 03:24 | -17.41397 | -151.50878 | 38884 ft | 455 kts | 124° |
| 2026-04-25 03:24 | -17.44499 | -151.45091 | 38881 ft | 455 kts | 124° |
| 2026-04-25 03:25 | -17.47597 | -151.39306 | 38881 ft | 455 kts | 124° |
| 2026-04-25 03:25 | -17.50675 | -151.33553 | 38883 ft | 455 kts | 124° |
| 2026-04-25 03:26 | -17.53770 | -151.27764 | 38890 ft | 455 kts | 124° |
| 2026-04-25 03:26 | -17.56867 | -151.21968 | 38883 ft | 455 kts | 124° |
| 2026-04-25 03:27 | -17.59961 | -151.16169 | 38883 ft | 455 kts | 124° |
| 2026-04-25 03:27 | -17.63034 | -151.10406 | 38884 ft | 455 kts | 124° |
| 2026-04-25 03:28 | -17.66124 | -151.04606 | 38886 ft | 455 kts | 124° |
| 2026-04-25 03:28 | -17.69218 | -150.98794 | 38888 ft | 456 kts | 123° |
| 2026-04-25 03:29 | -17.72308 | -150.92983 | 38875 ft | 456 kts | 123° |
| 2026-04-25 03:29 | -17.73843 | -150.90093 | 38432 ft | 454 kts | 123° |
| 2026-04-25 03:29 | -17.75389 | -150.87186 | 37679 ft | 457 kts | 123° |
| 2026-04-25 03:30 | -17.76944 | -150.84258 | 36892 ft | 462 kts | 123° |
| 2026-04-25 03:30 | -17.78517 | -150.81299 | 36106 ft | 467 kts | 123° |
| 2026-04-25 03:30 | -17.80109 | -150.78299 | 35329 ft | 472 kts | 123° |
| 2026-04-25 03:30 | -17.81709 | -150.75281 | 34570 ft | 476 kts | 123° |
| 2026-04-25 03:31 | -17.83329 | -150.72226 | 33797 ft | 480 kts | 123° |
| 2026-04-25 03:31 | -17.84955 | -150.69155 | 32931 ft | 484 kts | 123° |
| 2026-04-25 03:31 | -17.86604 | -150.66042 | 32061 ft | 488 kts | 123° |
| 2026-04-25 03:31 | -17.88255 | -150.62921 | 31228 ft | 492 kts | 123° |
| 2026-04-25 03:32 | -17.89900 | -150.59811 | 30392 ft | 495 kts | 122° |
| 2026-04-25 03:32 | -17.91580 | -150.56634 | 29535 ft | 498 kts | 122° |
| 2026-04-25 03:32 | -17.93261 | -150.53451 | 28718 ft | 498 kts | 122° |
| 2026-04-25 03:32 | -17.94939 | -150.50273 | 27990 ft | 496 kts | 122° |
| 2026-04-25 03:33 | -17.96606 | -150.47112 | 27308 ft | 493 kts | 122° |
| 2026-04-25 03:33 | -17.98267 | -150.43963 | 26680 ft | 490 kts | 122° |
| 2026-04-25 03:33 | -17.99907 | -150.40852 | 26049 ft | 486 kts | 121° |
| 2026-04-25 03:33 | -18.01539 | -150.37757 | 25427 ft | 483 kts | 121° |
| 2026-04-25 03:34 | -18.03147 | -150.34670 | 24827 ft | 480 kts | 119° |
| 2026-04-25 03:34 | -18.04303 | -150.31384 | 24238 ft | 480 kts | 104° |
| 2026-04-25 03:34 | -18.04580 | -150.27905 | 23663 ft | 480 kts | 88° |
| 2026-04-25 03:34 | -18.03954 | -150.24475 | 23044 ft | 479 kts | 72° |
| 2026-04-25 03:35 | -18.02465 | -150.21350 | 22406 ft | 477 kts | 55° |
| 2026-04-25 03:35 | -18.00259 | -150.18768 | 21807 ft | 473 kts | 42° |
| 2026-04-25 03:35 | -17.97879 | -150.16476 | 21226 ft | 468 kts | 44° |
| 2026-04-25 03:35 | -17.95602 | -150.14074 | 20551 ft | 459 kts | 47° |
| 2026-04-25 03:36 | -17.93497 | -150.11638 | 19337 ft | 442 kts | 50° |
| 2026-04-25 03:36 | -17.91526 | -150.09200 | 18215 ft | 429 kts | 51° |
| 2026-04-25 03:36 | -17.89696 | -150.06853 | 17720 ft | 399 kts | 52° |
| 2026-04-25 03:36 | -17.87986 | -150.04620 | 17215 ft | 389 kts | 52° |
| 2026-04-25 03:37 | -17.86306 | -150.02401 | 16701 ft | 388 kts | 52° |
| 2026-04-25 03:37 | -17.84626 | -150.00166 | 16176 ft | 390 kts | 52° |
| 2026-04-25 03:37 | -17.82968 | -149.97951 | 15662 ft | 390 kts | 52° |
| 2026-04-25 03:37 | -17.81292 | -149.95709 | 15137 ft | 390 kts | 52° |
| 2026-04-25 03:38 | -17.79620 | -149.93471 | 14604 ft | 390 kts | 52° |
| 2026-04-25 03:38 | -17.77950 | -149.91233 | 14091 ft | 389 kts | 52° |
| 2026-04-25 03:38 | -17.76284 | -149.89001 | 13591 ft | 388 kts | 52° |
| 2026-04-25 03:38 | -17.74618 | -149.86774 | 13073 ft | 386 kts | 51° |
| 2026-04-25 03:39 | -17.72966 | -149.84567 | 12556 ft | 383 kts | 52° |
| 2026-04-25 03:39 | -17.71294 | -149.82415 | 12129 ft | 378 kts | 48° |
| 2026-04-25 03:39 | -17.69476 | -149.80463 | 11853 ft | 369 kts | 44° |
| 2026-04-25 03:39 | -17.67637 | -149.78627 | 11596 ft | 360 kts | 43° |
| 2026-04-25 03:40 | -17.65838 | -149.76846 | 11351 ft | 351 kts | 43° |
| 2026-04-25 03:40 | -17.64080 | -149.75106 | 11101 ft | 344 kts | 43° |
| 2026-04-25 03:40 | -17.62360 | -149.73403 | 10852 ft | 337 kts | 43° |
| 2026-04-25 03:40 | -17.60670 | -149.71732 | 10603 ft | 330 kts | 43° |
| 2026-04-25 03:41 | -17.59034 | -149.70115 | 10357 ft | 325 kts | 43° |
| 2026-04-25 03:41 | -17.57405 | -149.68505 | 10117 ft | 319 kts | 43° |
| 2026-04-25 03:41 | -17.55801 | -149.66921 | 9870 ft | 314 kts | 43° |
| 2026-04-25 03:41 | -17.54221 | -149.65355 | 9586 ft | 310 kts | 43° |
| 2026-04-25 03:42 | -17.52667 | -149.63816 | 9312 ft | 305 kts | 43° |
| 2026-04-25 03:42 | -17.51130 | -149.62300 | 9054 ft | 301 kts | 43° |
| 2026-04-25 03:42 | -17.49612 | -149.60806 | 8783 ft | 297 kts | 43° |
| 2026-04-25 03:42 | -17.48106 | -149.59330 | 8518 ft | 294 kts | 43° |
| 2026-04-25 03:43 | -17.46614 | -149.57874 | 8246 ft | 292 kts | 43° |
| 2026-04-25 03:43 | -17.45129 | -149.56432 | 7985 ft | 291 kts | 43° |
| 2026-04-25 03:43 | -17.43645 | -149.54995 | 7727 ft | 289 kts | 43° |
| 2026-04-25 03:43 | -17.42172 | -149.53572 | 7463 ft | 287 kts | 43° |
| 2026-04-25 03:44 | -17.40724 | -149.52177 | 7203 ft | 285 kts | 43° |
| 2026-04-25 03:44 | -17.39346 | -149.50691 | 6926 ft | 283 kts | 52° |
| 2026-04-25 03:44 | -17.38218 | -149.49008 | 6685 ft | 281 kts | 57° |
| 2026-04-25 03:44 | -17.37158 | -149.47290 | 6353 ft | 282 kts | 58° |
| 2026-04-25 03:45 | -17.36098 | -149.45557 | 5957 ft | 282 kts | 58° |
| 2026-04-25 03:45 | -17.35396 | -149.44409 | 5708 ft | 282 kts | 58° |
| 2026-04-25 03:45 | -17.34116 | -149.42020 | 5169 ft | 281 kts | 69° |
| 2026-04-25 03:45 | -17.33704 | -149.40068 | 4788 ft | 270 kts | 89° |
| 2026-04-25 03:46 | -17.33894 | -149.38807 | 4534 ft | 263 kts | 111° |
| 2026-04-25 03:46 | -17.34980 | -149.37345 | 4142 ft | 255 kts | 147° |
| 2026-04-25 03:46 | -17.36634 | -149.36838 | 3765 ft | 248 kts | 182° |
| 2026-04-25 03:46 | -17.38239 | -149.37347 | 3462 ft | 240 kts | 213° |
| 2026-04-25 03:47 | -17.39476 | -149.38477 | 3317 ft | 233 kts | 226° |
| 2026-04-25 03:47 | -17.40570 | -149.39698 | 3198 ft | 226 kts | 227° |
| 2026-04-25 03:47 | -17.41630 | -149.40883 | 3080 ft | 219 kts | 227° |
| 2026-04-25 03:47 | -17.42587 | -149.42091 | 3014 ft | 214 kts | 234° |
| 2026-04-25 03:48 | -17.43432 | -149.43327 | 3002 ft | 202 kts | 235° |
| 2026-04-25 03:48 | -17.44222 | -149.44504 | 3003 ft | 194 kts | 235° |
| 2026-04-25 03:48 | -17.44999 | -149.45659 | 3002 ft | 194 kts | 235° |
| 2026-04-25 03:48 | -17.45760 | -149.46787 | 3014 ft | 191 kts | 235° |
| 2026-04-25 03:49 | -17.46527 | -149.47926 | 2866 ft | 191 kts | 235° |
| 2026-04-25 03:49 | -17.47300 | -149.49049 | 2590 ft | 190 kts | 234° |
| 2026-04-25 03:49 | -17.48079 | -149.50165 | 2300 ft | 187 kts | 234° |
| 2026-04-25 03:49 | -17.48831 | -149.51245 | 2033 ft | 179 kts | 234° |
| 2026-04-25 03:50 | -17.49537 | -149.52261 | 1810 ft | 165 kts | 234° |
| 2026-04-25 03:50 | -17.50186 | -149.53199 | 1575 ft | 153 kts | 234° |
| 2026-04-25 03:50 | -17.50793 | -149.54077 | 1370 ft | 145 kts | 234° |
| 2026-04-25 03:50 | -17.51384 | -149.54934 | 1160 ft | 146 kts | 234° |
| 2026-04-25 03:51 | -17.51979 | -149.55795 | 961 ft | 146 kts | 234° |
| 2026-04-25 03:51 | -17.52565 | -149.56649 | 721 ft | 147 kts | 234° |
| 2026-04-25 03:51 | -17.53146 | -149.57513 | 459 ft | 141 kts | 232° |
| 2026-04-25 03:51 | -17.53708 | -149.58334 | 260 ft | 136 kts | 231° |
| 2026-04-25 03:52 | -17.54273 | -149.59140 | 102 ft | 137 kts | 229° |
| 2026-04-25 03:52 | -17.54824 | -149.59944 | 32 ft | 132 kts | 227° |
| 2026-04-25 03:52 | -17.55307 | -149.60640 | 14 ft | 97 kts | 234° |
| 2026-04-25 03:52 | -17.55562 | -149.61010 | 14 ft | 31 kts | 233° |
| 2026-04-25 03:53 | -17.55656 | -149.61128 | 12 ft | 12 kts | 197° |
| 2026-04-25 03:53 | -17.55739 | -149.61090 | 12 ft | 15 kts | 144° |
| 2026-04-25 03:53 | -17.55836 | -149.61087 | 12 ft | 15 kts | 192° |
| 2026-04-25 03:53 | -17.55889 | -149.61092 | 12 ft | 0 kts | 178° |